createdAt,value
2022-08-12T00:00:00.783Z,1013.12
2022-08-12T00:01:00.788Z,1013.12
2022-08-12T00:02:03.172Z,1013.12
2022-08-12T00:03:00.874Z,1013.12
2022-08-12T00:04:00.750Z,1013.11
2022-08-12T00:05:00.720Z,1013.13
2022-08-12T00:06:04.568Z,1013.12
2022-08-12T00:07:00.703Z,1013.08
2022-08-12T00:08:00.688Z,1013.07
2022-08-12T00:09:00.689Z,1013.08
2022-08-12T00:10:00.668Z,1013.05
2022-08-12T00:11:09.635Z,1013.04
2022-08-12T00:12:01.661Z,1013.02
2022-08-12T00:13:00.633Z,1013.05
2022-08-12T00:14:00.644Z,1013.08
2022-08-12T00:15:00.605Z,1013.09
2022-08-12T00:16:00.603Z,1013.05
2022-08-12T00:17:00.590Z,1013.06
2022-08-12T00:18:00.580Z,1013.07
2022-08-12T00:19:00.559Z,1013.07
2022-08-12T00:20:00.573Z,1013.02
2022-08-12T00:21:00.536Z,1013.03
2022-08-12T00:22:00.535Z,1013.03
2022-08-12T00:23:00.524Z,1013.04
2022-08-12T00:24:00.504Z,1013.02
2022-08-12T00:25:00.549Z,1013.00
2022-08-12T00:26:20.338Z,1013.01
2022-08-12T00:27:01.469Z,1013.02
2022-08-12T00:28:00.460Z,1013.04
2022-08-12T00:29:00.455Z,1013.04
2022-08-12T00:30:00.443Z,1013.02
2022-08-12T00:31:00.470Z,1013.03
2022-08-12T00:32:01.290Z,1013.05
2022-08-12T00:33:00.537Z,1012.99
2022-08-12T00:34:00.579Z,1013.05
2022-08-12T00:35:00.386Z,1013.01
2022-08-12T00:36:01.463Z,1013.04
2022-08-12T00:37:07.240Z,1013.09
2022-08-12T00:38:01.355Z,1013.04
2022-08-12T00:39:00.339Z,1013.06
2022-08-12T00:40:00.333Z,1013.05
2022-08-12T00:41:00.314Z,1013.05
2022-08-12T00:42:00.323Z,1013.06
2022-08-12T00:43:00.298Z,1013.05
2022-08-12T00:44:00.280Z,1013.04
2022-08-12T00:45:00.275Z,1013.03
2022-08-12T00:46:00.267Z,1013.07
2022-08-12T00:47:00.269Z,1013.00
2022-08-12T00:48:00.235Z,1013.06
2022-08-12T00:49:00.223Z,1013.05
2022-08-12T00:50:00.226Z,1013.05
2022-08-12T00:51:00.203Z,1013.02
2022-08-12T00:52:00.222Z,1013.01
2022-08-12T00:53:00.187Z,1013.04
2022-08-12T00:54:00.176Z,1013.05
2022-08-12T00:55:00.175Z,1013.09
2022-08-12T00:56:00.155Z,1013.05
2022-08-12T00:57:00.146Z,1013.03
2022-08-12T00:58:00.145Z,1013.07
2022-08-12T00:59:00.108Z,1013.05
2022-08-12T01:00:00.155Z,1013.04
2022-08-12T01:01:00.158Z,1013.05
2022-08-12T01:02:02.450Z,1013.03
2022-08-12T01:03:01.074Z,1013.06
2022-08-12T01:04:00.080Z,1013.04
2022-08-12T01:05:00.049Z,1013.05
2022-08-12T01:06:00.032Z,1013.02
2022-08-12T01:07:00.027Z,1013.11
2022-08-12T01:08:00.032Z,1013.08
2022-08-12T01:09:00.005Z,1013.07
2022-08-12T01:09:59.987Z,1013.08
2022-08-12T01:10:59.977Z,1013.10
2022-08-12T01:11:59.978Z,1013.08
2022-08-12T01:13:07.315Z,1013.07
2022-08-12T01:14:00.948Z,1013.10
2022-08-12T01:14:59.940Z,1013.07
2022-08-12T01:15:59.926Z,1013.08
2022-08-12T01:16:59.907Z,1013.10
2022-08-12T01:17:59.897Z,1013.10
2022-08-12T01:18:59.901Z,1013.10
2022-08-12T01:19:59.881Z,1013.12
2022-08-12T01:20:59.864Z,1013.15
2022-08-12T01:21:59.860Z,1013.18
2022-08-12T01:22:59.840Z,1013.16
2022-08-12T01:23:59.851Z,1013.16
2022-08-12T01:25:00.825Z,1013.14
2022-08-12T01:25:59.813Z,1013.17
2022-08-12T01:26:59.806Z,1013.16
2022-08-12T01:27:59.785Z,1013.15
2022-08-12T01:28:59.794Z,1013.13
2022-08-12T01:29:59.760Z,1013.16
2022-08-12T01:30:59.750Z,1013.13
2022-08-12T01:31:59.738Z,1013.15
2022-08-12T01:32:59.727Z,1013.19
2022-08-12T01:33:59.790Z,1013.15
2022-08-12T01:34:59.710Z,1013.15
2022-08-12T01:36:08.213Z,1013.14
2022-08-12T01:37:00.685Z,1013.16
2022-08-12T01:37:59.682Z,1013.14
2022-08-12T01:38:59.681Z,1013.08
2022-08-12T01:40:36.046Z,1013.09
2022-08-12T01:41:00.720Z,1013.05
2022-08-12T01:41:59.636Z,1013.07
2022-08-12T01:42:59.623Z,1013.06
2022-08-12T01:43:59.622Z,1013.04
2022-08-12T01:44:59.601Z,1013.05
2022-08-12T01:45:59.596Z,1013.06
2022-08-12T01:46:59.581Z,1013.07
2022-08-12T01:47:59.567Z,1013.10
2022-08-12T01:48:59.559Z,1013.02
2022-08-12T01:49:59.558Z,1013.04
2022-08-12T01:51:00.307Z,1013.06
2022-08-12T01:52:20.392Z,1013.07
2022-08-12T01:53:00.513Z,1013.02
2022-08-12T01:53:59.495Z,1013.08
2022-08-12T01:54:59.506Z,1013.03
2022-08-12T01:55:59.479Z,1013.01
2022-08-12T01:56:59.462Z,1012.98
2022-08-12T01:58:01.178Z,1013.00
2022-08-12T01:58:59.445Z,1013.00
2022-08-12T01:59:59.441Z,1013.00
2022-08-12T02:00:59.572Z,1013.01
2022-08-12T02:01:59.414Z,1013.01
2022-08-12T02:02:59.402Z,1012.99
2022-08-12T02:03:59.398Z,1013.02
2022-08-12T02:04:59.384Z,1013.00
2022-08-12T02:05:59.373Z,1013.00
2022-08-12T02:06:59.363Z,1012.99
2022-08-12T02:07:59.338Z,1012.99
2022-08-12T02:08:59.335Z,1013.01
2022-08-12T02:09:59.323Z,1012.98
2022-08-12T02:10:59.328Z,1012.95
2022-08-12T02:11:59.324Z,1012.97
2022-08-12T02:13:00.290Z,1012.97
2022-08-12T02:13:59.275Z,1012.99
2022-08-12T02:14:59.314Z,1012.98
2022-08-12T02:15:59.262Z,1012.99
2022-08-12T02:16:59.237Z,1012.97
2022-08-12T02:17:59.228Z,1013.00
2022-08-12T02:18:59.227Z,1013.01
2022-08-12T02:19:59.209Z,1013.01
2022-08-12T02:20:59.207Z,1013.03
2022-08-12T02:21:59.190Z,1013.03
2022-08-12T02:22:59.176Z,1013.01
2022-08-12T02:23:59.164Z,1013.03
2022-08-12T02:24:59.149Z,1013.02
2022-08-12T02:25:59.136Z,1013.05
2022-08-12T02:26:59.138Z,1013.07
2022-08-12T02:27:59.120Z,1013.04
2022-08-12T02:29:00.103Z,1013.03
2022-08-12T02:29:59.094Z,1012.99
2022-08-12T02:30:59.081Z,1013.00
2022-08-12T02:31:59.092Z,1013.01
2022-08-12T02:32:59.067Z,1013.00
2022-08-12T02:33:59.050Z,1013.01
2022-08-12T02:34:59.043Z,1013.00
2022-08-12T02:35:59.033Z,1013.01
2022-08-12T02:37:03.813Z,1013.01
2022-08-12T02:37:59.032Z,1013.01
2022-08-12T02:38:58.992Z,1013.04
2022-08-12T02:39:59.059Z,1013.01
2022-08-12T02:40:58.977Z,1013.04
2022-08-12T02:41:58.963Z,1013.05
2022-08-12T02:42:58.966Z,1013.03
2022-08-12T02:43:58.935Z,1013.05
2022-08-12T02:44:58.925Z,1013.08
2022-08-12T02:45:58.913Z,1013.02
2022-08-12T02:46:58.902Z,1013.05
2022-08-12T02:48:01.059Z,1013.04
2022-08-12T02:48:58.879Z,1013.05
2022-08-12T02:49:58.875Z,1013.04
2022-08-12T02:50:58.858Z,1013.04
2022-08-12T02:51:58.862Z,1013.03
2022-08-12T02:52:58.876Z,1013.04
2022-08-12T02:54:05.648Z,1013.07
2022-08-12T02:54:59.811Z,1013.02
2022-08-12T02:55:58.812Z,1013.03
2022-08-12T02:56:58.797Z,1013.10
2022-08-12T02:57:58.800Z,1013.13
2022-08-12T02:58:59.767Z,1013.15
2022-08-12T02:59:58.763Z,1013.13
2022-08-12T03:00:58.843Z,1013.14
2022-08-12T03:01:58.744Z,1013.15
2022-08-12T03:02:58.745Z,1013.11
2022-08-12T03:03:58.711Z,1013.15
2022-08-12T03:04:58.700Z,1013.13
2022-08-12T03:05:58.690Z,1013.13
2022-08-12T03:06:58.690Z,1013.17
2022-08-12T03:08:00.088Z,1013.14
2022-08-12T03:08:58.659Z,1013.16
2022-08-12T03:10:05.434Z,1013.12
2022-08-12T03:10:59.635Z,1013.10
2022-08-12T03:11:58.622Z,1013.15
2022-08-12T03:12:58.627Z,1013.18
2022-08-12T03:13:58.598Z,1013.15
2022-08-12T03:14:58.596Z,1013.13
2022-08-12T03:15:58.592Z,1013.15
2022-08-12T03:16:58.581Z,1013.16
2022-08-12T03:18:26.515Z,1013.14
2022-08-12T03:18:59.544Z,1013.11
2022-08-12T03:20:09.131Z,1013.11
2022-08-12T03:20:59.535Z,1013.12
2022-08-12T03:22:08.902Z,1013.12
2022-08-12T03:22:59.513Z,1013.07
2022-08-12T03:23:58.489Z,1013.07
2022-08-12T03:24:58.476Z,1013.10
2022-08-12T03:25:58.464Z,1013.07
2022-08-12T03:27:00.269Z,1013.09
2022-08-12T03:27:58.468Z,1013.08
2022-08-12T03:28:58.438Z,1013.09
2022-08-12T03:29:58.418Z,1013.08
2022-08-12T03:30:58.409Z,1013.12
2022-08-12T03:31:58.403Z,1013.11
2022-08-12T03:32:58.408Z,1013.12
2022-08-12T03:34:02.219Z,1013.12
2022-08-12T03:34:58.374Z,1013.11
2022-08-12T03:35:58.361Z,1013.05
2022-08-12T03:36:58.341Z,1013.09
2022-08-12T03:37:58.348Z,1013.09
2022-08-12T03:38:58.331Z,1013.07
2022-08-12T03:39:58.404Z,1013.06
2022-08-12T03:40:58.309Z,1013.05
2022-08-12T03:41:58.362Z,1013.05
2022-08-12T03:42:58.302Z,1013.06
2022-08-12T03:43:58.293Z,1013.03
2022-08-12T03:44:58.258Z,1012.99
2022-08-12T03:45:58.250Z,1013.02
2022-08-12T03:46:58.237Z,1013.02
2022-08-12T03:47:58.233Z,1013.02
2022-08-12T03:48:58.210Z,1013.02
2022-08-12T03:49:58.225Z,1013.05
2022-08-12T03:50:58.185Z,1013.04
2022-08-12T03:51:58.176Z,1013.06
2022-08-12T03:52:58.185Z,1013.04
2022-08-12T03:53:58.156Z,1013.05
2022-08-12T03:54:58.147Z,1013.08
2022-08-12T03:55:58.162Z,1013.11
2022-08-12T03:56:58.157Z,1013.14
2022-08-12T03:57:58.120Z,1013.16
2022-08-12T03:58:58.101Z,1013.16
2022-08-12T03:59:58.087Z,1013.15
2022-08-12T04:00:58.135Z,1013.20
2022-08-12T04:01:58.372Z,1013.17
2022-08-12T04:02:58.069Z,1013.16
2022-08-12T04:03:58.041Z,1013.13
2022-08-12T04:04:58.082Z,1013.18
2022-08-12T04:05:58.022Z,1013.18
2022-08-12T04:06:58.003Z,1013.19
2022-08-12T04:07:58.697Z,1013.16
2022-08-12T04:08:57.987Z,1013.13
2022-08-12T04:09:57.967Z,1013.18
2022-08-12T04:10:57.955Z,1013.13
2022-08-12T04:11:57.942Z,1013.14
2022-08-12T04:12:58.188Z,1013.13
2022-08-12T04:13:57.931Z,1013.15
2022-08-12T04:14:57.913Z,1013.10
2022-08-12T04:15:57.904Z,1013.08
2022-08-12T04:16:57.889Z,1013.15
2022-08-12T04:18:07.094Z,1013.18
2022-08-12T04:18:58.860Z,1013.16
2022-08-12T04:19:57.975Z,1013.23
2022-08-12T04:20:57.845Z,1013.25
2022-08-12T04:22:01.893Z,1013.21
2022-08-12T04:22:58.831Z,1013.19
2022-08-12T04:23:57.802Z,1013.21
2022-08-12T04:24:57.807Z,1013.23
2022-08-12T04:25:57.777Z,1013.19
2022-08-12T04:26:57.771Z,1013.19
2022-08-12T04:27:57.774Z,1013.18
2022-08-12T04:28:58.752Z,1013.18
2022-08-12T04:30:17.010Z,1013.15
2022-08-12T04:30:58.727Z,1013.12
2022-08-12T04:31:57.759Z,1013.11
2022-08-12T04:32:57.843Z,1013.08
2022-08-12T04:33:57.688Z,1013.15
2022-08-12T04:34:57.721Z,1013.11
2022-08-12T04:35:57.680Z,1013.12
2022-08-12T04:36:57.707Z,1013.12
2022-08-12T04:38:00.121Z,1013.12
2022-08-12T04:38:59.675Z,1013.22
2022-08-12T04:39:57.664Z,1013.15
2022-08-12T04:40:57.617Z,1013.18
2022-08-12T04:41:58.755Z,1013.14
2022-08-12T04:42:57.616Z,1013.18
2022-08-12T04:44:02.040Z,1013.21
2022-08-12T04:44:57.579Z,1013.15
2022-08-12T04:45:57.558Z,1013.21
2022-08-12T04:46:57.549Z,1013.19
2022-08-12T04:47:57.568Z,1013.16
2022-08-12T04:48:57.528Z,1013.22
2022-08-12T04:49:57.519Z,1013.18
2022-08-12T04:50:57.506Z,1013.22
2022-08-12T04:51:59.089Z,1013.18
2022-08-12T04:52:57.500Z,1013.15
2022-08-12T04:53:57.470Z,1013.20
2022-08-12T04:54:57.460Z,1013.16
2022-08-12T04:55:57.441Z,1013.16
2022-08-12T04:57:03.521Z,1013.17
2022-08-12T04:57:58.441Z,1013.19
2022-08-12T04:58:57.415Z,1013.19
2022-08-12T04:59:57.397Z,1013.16
2022-08-12T05:00:57.398Z,1013.18
2022-08-12T05:01:57.702Z,1013.18
2022-08-12T05:02:57.448Z,1013.19
2022-08-12T05:03:57.369Z,1013.23
2022-08-12T05:05:00.983Z,1013.16
2022-08-12T05:05:57.339Z,1013.17
2022-08-12T05:06:57.328Z,1013.15
2022-08-12T05:07:57.326Z,1013.19
2022-08-12T05:08:57.336Z,1013.15
2022-08-12T05:09:59.893Z,1013.18
2022-08-12T05:10:57.278Z,1013.18
2022-08-12T05:11:57.265Z,1013.19
2022-08-12T05:12:57.268Z,1013.21
2022-08-12T05:13:57.252Z,1013.21
2022-08-12T05:14:57.239Z,1013.17
2022-08-12T05:16:05.146Z,1013.18
2022-08-12T05:16:58.212Z,1013.20
2022-08-12T05:17:59.879Z,1013.20
2022-08-12T05:18:57.189Z,1013.15
2022-08-12T05:19:58.006Z,1013.18
2022-08-12T05:20:57.166Z,1013.20
2022-08-12T05:21:57.158Z,1013.20
2022-08-12T05:22:59.442Z,1013.20
2022-08-12T05:23:58.139Z,1013.18
2022-08-12T05:24:57.123Z,1013.20
2022-08-12T05:25:57.437Z,1013.19
2022-08-12T05:26:57.105Z,1013.20
2022-08-12T05:27:58.578Z,1013.21
2022-08-12T05:28:57.095Z,1013.18
2022-08-12T05:30:08.273Z,1013.17
2022-08-12T05:30:58.055Z,1013.20
2022-08-12T05:31:57.053Z,1013.20
2022-08-12T05:32:59.921Z,1013.16
2022-08-12T05:33:57.041Z,1013.21
2022-08-12T05:34:57.011Z,1013.21
2022-08-12T05:35:57.006Z,1013.22
2022-08-12T05:36:56.997Z,1013.19
2022-08-12T05:37:56.976Z,1013.19
2022-08-12T05:38:56.983Z,1013.18
2022-08-12T05:39:57.035Z,1013.19
2022-08-12T05:40:56.943Z,1013.22
2022-08-12T05:41:56.938Z,1013.22
2022-08-12T05:42:56.917Z,1013.19
2022-08-12T05:43:56.918Z,1013.22
2022-08-12T05:44:56.945Z,1013.19
2022-08-12T05:45:56.891Z,1013.23
2022-08-12T05:46:56.876Z,1013.21
2022-08-12T05:47:56.869Z,1013.24
2022-08-12T05:48:56.851Z,1013.16
2022-08-12T05:49:56.858Z,1013.22
2022-08-12T05:50:56.830Z,1013.22
2022-08-12T05:51:56.821Z,1013.25
2022-08-12T05:52:56.809Z,1013.28
2022-08-12T05:53:56.799Z,1013.28
2022-08-12T05:54:57.976Z,1013.25
2022-08-12T05:55:56.776Z,1013.24
2022-08-12T05:56:56.761Z,1013.22
2022-08-12T05:57:57.085Z,1013.25
2022-08-12T05:58:57.369Z,1013.30
2022-08-12T05:59:56.744Z,1013.27
2022-08-12T06:00:56.719Z,1013.30
2022-08-12T06:02:08.741Z,1013.28
2022-08-12T06:02:57.744Z,1013.30
2022-08-12T06:03:56.695Z,1013.30
2022-08-12T06:04:56.694Z,1013.30
2022-08-12T06:05:56.664Z,1013.34
2022-08-12T06:06:56.659Z,1013.30
2022-08-12T06:08:01.657Z,1013.31
2022-08-12T06:08:57.636Z,1013.35
2022-08-12T06:09:56.641Z,1013.35
2022-08-12T06:10:56.605Z,1013.37
2022-08-12T06:12:04.448Z,1013.41
2022-08-12T06:12:57.584Z,1013.39
2022-08-12T06:13:56.572Z,1013.37
2022-08-12T06:14:56.578Z,1013.40
2022-08-12T06:15:56.557Z,1013.38
2022-08-12T06:16:56.538Z,1013.39
2022-08-12T06:17:56.535Z,1013.40
2022-08-12T06:18:56.524Z,1013.38
2022-08-12T06:20:28.345Z,1013.39
2022-08-12T06:20:57.500Z,1013.38
2022-08-12T06:21:56.483Z,1013.42
2022-08-12T06:22:56.476Z,1013.40
2022-08-12T06:23:56.463Z,1013.40
2022-08-12T06:24:56.477Z,1013.36
2022-08-12T06:25:56.443Z,1013.41
2022-08-12T06:26:56.436Z,1013.43
2022-08-12T06:28:07.552Z,1013.43
2022-08-12T06:28:57.409Z,1013.44
2022-08-12T06:30:09.525Z,1013.41
2022-08-12T06:31:24.225Z,1013.40
2022-08-12T06:31:57.378Z,1013.39
2022-08-12T06:33:10.703Z,1013.41
2022-08-12T06:34:52.787Z,1013.44
2022-08-12T06:35:25.358Z,1013.44
2022-08-12T06:35:58.970Z,1013.42
2022-08-12T06:36:56.322Z,1013.41
2022-08-12T06:37:57.018Z,1013.44
2022-08-12T06:38:56.307Z,1013.45
2022-08-12T06:40:00.202Z,1013.41
2022-08-12T06:40:57.278Z,1013.40
2022-08-12T06:42:30.637Z,1013.43
2022-08-12T06:42:57.256Z,1013.40
2022-08-12T06:44:04.475Z,1013.38
2022-08-12T06:44:57.247Z,1013.33
2022-08-12T06:45:56.225Z,1013.37
2022-08-12T06:46:56.808Z,1013.38
2022-08-12T06:47:56.196Z,1013.35
2022-08-12T06:48:56.185Z,1013.39
2022-08-12T06:49:56.196Z,1013.42
2022-08-12T06:50:56.169Z,1013.40
2022-08-12T06:51:57.311Z,1013.47
2022-08-12T06:52:56.377Z,1013.47
2022-08-12T06:53:56.136Z,1013.40
2022-08-12T06:54:56.141Z,1013.39
2022-08-12T06:55:58.262Z,1013.39
2022-08-12T06:58:05.862Z,1013.43
2022-08-12T06:58:08.044Z,1013.38
2022-08-12T06:58:57.080Z,1013.38
2022-08-12T06:59:56.084Z,1013.38
2022-08-12T07:00:56.167Z,1013.34
2022-08-12T07:01:56.039Z,1013.38
2022-08-12T07:02:56.035Z,1013.37
2022-08-12T07:04:01.820Z,1013.36
2022-08-12T07:04:57.032Z,1013.34
2022-08-12T07:05:56.000Z,1013.34
2022-08-12T07:06:55.988Z,1013.37
2022-08-12T07:07:55.971Z,1013.33
2022-08-12T07:08:56.015Z,1013.34
2022-08-12T07:10:05.836Z,1013.34
2022-08-12T07:10:56.938Z,1013.36
2022-08-12T07:11:55.925Z,1013.32
2022-08-12T07:12:55.918Z,1013.38
2022-08-12T07:14:12.011Z,1013.38
2022-08-12T07:14:56.913Z,1013.35
2022-08-12T07:15:55.886Z,1013.38
2022-08-12T07:16:55.875Z,1013.38
2022-08-12T07:17:55.864Z,1013.40
2022-08-12T07:18:55.844Z,1013.39
2022-08-12T07:20:00.508Z,1013.41
2022-08-12T07:20:56.820Z,1013.40
2022-08-12T07:21:59.849Z,1013.38
2022-08-12T07:22:56.804Z,1013.35
2022-08-12T07:23:55.802Z,1013.37
2022-08-12T07:24:55.795Z,1013.36
2022-08-12T07:25:58.416Z,1013.38
2022-08-12T07:26:55.752Z,1013.38
2022-08-12T07:27:55.762Z,1013.39
2022-08-12T07:28:55.736Z,1013.36
2022-08-12T07:30:00.076Z,1013.36
2022-08-12T07:30:56.726Z,1013.36
2022-08-12T07:31:55.709Z,1013.38
2022-08-12T07:33:01.278Z,1013.36
2022-08-12T07:33:56.681Z,1013.38
2022-08-12T07:34:55.668Z,1013.36
2022-08-12T07:35:55.657Z,1013.37
2022-08-12T07:36:55.651Z,1013.37
2022-08-12T07:37:55.661Z,1013.34
2022-08-12T07:38:55.616Z,1013.34
2022-08-12T07:39:59.809Z,1013.34
2022-08-12T07:40:56.599Z,1013.34
2022-08-12T07:41:55.583Z,1013.37
2022-08-12T07:42:55.595Z,1013.41
2022-08-12T07:43:55.569Z,1013.35
2022-08-12T07:44:55.556Z,1013.38
2022-08-12T07:45:55.538Z,1013.40
2022-08-12T07:46:55.531Z,1013.40
2022-08-12T07:47:55.524Z,1013.43
2022-08-12T07:48:55.525Z,1013.42
2022-08-12T07:50:06.294Z,1013.45
2022-08-12T07:50:56.490Z,1013.45
2022-08-12T07:51:55.479Z,1013.44
2022-08-12T07:52:55.466Z,1013.47
2022-08-12T07:54:00.828Z,1013.49
2022-08-12T07:54:56.442Z,1013.48
2022-08-12T07:55:55.433Z,1013.48
2022-08-12T07:56:55.422Z,1013.48
2022-08-12T07:57:55.403Z,1013.50
2022-08-12T07:58:55.423Z,1013.48
2022-08-12T07:59:55.599Z,1013.48
2022-08-12T08:00:55.375Z,1013.50
2022-08-12T08:01:55.408Z,1013.54
2022-08-12T08:02:55.352Z,1013.54
2022-08-12T08:03:55.335Z,1013.56
2022-08-12T08:04:55.348Z,1013.51
2022-08-12T08:05:55.312Z,1013.54
2022-08-12T08:06:55.307Z,1013.56
2022-08-12T08:07:55.303Z,1013.54
2022-08-12T08:08:55.284Z,1013.54
2022-08-12T08:09:58.303Z,1013.52
2022-08-12T08:10:55.257Z,1013.52
2022-08-12T08:11:55.246Z,1013.48
2022-08-12T08:12:55.238Z,1013.46
2022-08-12T08:13:55.220Z,1013.49
2022-08-12T08:14:55.225Z,1013.50
2022-08-12T08:16:03.823Z,1013.48
2022-08-12T08:16:56.186Z,1013.52
2022-08-12T08:17:55.182Z,1013.50
2022-08-12T08:18:55.171Z,1013.55
2022-08-12T08:20:02.560Z,1013.56
2022-08-12T08:20:56.158Z,1013.60
2022-08-12T08:21:55.155Z,1013.62
2022-08-12T08:22:55.128Z,1013.58
2022-08-12T08:23:56.544Z,1013.54
2022-08-12T08:24:55.110Z,1013.60
2022-08-12T08:25:55.094Z,1013.55
2022-08-12T08:26:55.081Z,1013.59
2022-08-12T08:27:55.098Z,1013.59
2022-08-12T08:28:55.093Z,1013.61
2022-08-12T08:29:55.052Z,1013.55
2022-08-12T08:30:55.051Z,1013.51
2022-08-12T08:31:55.025Z,1013.56
2022-08-12T08:32:55.006Z,1013.49
2022-08-12T08:34:04.982Z,1013.51
2022-08-12T08:34:56.070Z,1013.48
2022-08-12T08:35:55.031Z,1013.47
2022-08-12T08:36:54.962Z,1013.46
2022-08-12T08:37:54.958Z,1013.48
2022-08-12T08:38:58.126Z,1013.46
2022-08-12T08:39:55.024Z,1013.41
2022-08-12T08:40:54.939Z,1013.46
2022-08-12T08:42:14.032Z,1013.43
2022-08-12T08:42:56.426Z,1013.40
2022-08-12T08:43:54.893Z,1013.45
2022-08-12T08:44:57.955Z,1013.42
2022-08-12T08:45:54.866Z,1013.43
2022-08-12T08:46:54.871Z,1013.48
2022-08-12T08:47:59.637Z,1013.45
2022-08-12T08:48:59.500Z,1013.47
2022-08-12T08:49:54.822Z,1013.38
2022-08-12T08:51:04.120Z,1013.38
2022-08-12T08:51:55.811Z,1013.43
2022-08-12T08:52:54.792Z,1013.38
2022-08-12T08:53:54.787Z,1013.38
2022-08-12T08:54:54.770Z,1013.36
2022-08-12T08:56:04.493Z,1013.42
2022-08-12T08:56:55.778Z,1013.43
2022-08-12T08:57:54.735Z,1013.47
2022-08-12T08:58:54.720Z,1013.43
2022-08-12T08:59:54.710Z,1013.50
2022-08-12T09:00:54.703Z,1013.48
2022-08-12T09:01:54.756Z,1013.45
2022-08-12T09:02:59.354Z,1013.45
2022-08-12T09:05:10.024Z,1013.43
2022-08-12T09:05:14.399Z,1013.42
2022-08-12T09:06:02.634Z,1013.40
2022-08-12T09:06:55.890Z,1013.38
2022-08-12T09:08:08.998Z,1013.42
2022-08-12T09:08:55.618Z,1013.40
2022-08-12T09:10:02.271Z,1013.39
2022-08-12T09:10:59.584Z,1013.44
2022-08-12T09:12:55.893Z,1013.43
2022-08-12T09:14:11.054Z,1013.40
2022-08-12T09:14:55.587Z,1013.42
2022-08-12T09:15:57.447Z,1013.37
2022-08-12T09:16:54.525Z,1013.48
2022-08-12T09:17:54.717Z,1013.46
2022-08-12T09:18:54.521Z,1013.44
2022-08-12T09:19:58.229Z,1013.35
2022-08-12T09:20:54.482Z,1013.44
2022-08-12T09:21:55.466Z,1013.41
2022-08-12T09:22:54.719Z,1013.38
2022-08-12T09:24:55.443Z,1013.50
2022-08-12T09:25:54.436Z,1013.51
2022-08-12T09:26:54.424Z,1013.51
2022-08-12T09:27:57.842Z,1013.46
2022-08-12T09:28:55.409Z,1013.51
2022-08-12T09:30:11.878Z,1013.51
2022-08-12T09:30:57.291Z,1013.46
2022-08-12T09:32:07.437Z,1013.41
2022-08-12T09:33:03.920Z,1013.40
2022-08-12T09:34:29.010Z,1013.39
2022-08-12T09:34:55.339Z,1013.42
2022-08-12T09:36:04.141Z,1013.42
2022-08-12T09:37:01.101Z,1013.32
2022-08-12T09:37:59.198Z,1013.33
2022-08-12T09:38:59.206Z,1013.30
2022-08-12T09:40:01.696Z,1013.33
2022-08-12T09:40:57.214Z,1013.34
2022-08-12T09:42:32.813Z,1013.33
2022-08-12T09:43:15.512Z,1013.29
2022-08-12T09:44:01.092Z,1013.28
2022-08-12T09:45:18.345Z,1013.31
2022-08-12T09:46:06.500Z,1013.28
2022-08-12T09:46:56.012Z,1013.25
2022-08-12T09:47:59.116Z,1013.27
2022-08-12T09:48:56.394Z,1013.25
2022-08-12T09:49:57.857Z,1013.22
2022-08-12T09:50:55.481Z,1013.13
2022-08-12T09:51:54.158Z,1013.18
2022-08-12T09:54:06.037Z,1013.16
2022-08-12T09:54:31.539Z,1013.18
2022-08-12T09:54:59.856Z,1013.08
2022-08-12T09:56:05.674Z,1013.07
2022-08-12T09:57:01.911Z,1013.07
2022-08-12T09:58:07.888Z,1013.08
2022-08-12T09:58:59.901Z,1013.13
2022-08-12T10:00:15.482Z,1013.13
2022-08-12T10:00:55.235Z,1013.13
2022-08-12T10:02:42.551Z,1013.15
2022-08-12T10:02:55.462Z,1013.12
2022-08-12T10:04:03.348Z,1013.12
2022-08-12T10:04:55.092Z,1013.13
2022-08-12T10:06:20.163Z,1013.10
2022-08-12T10:06:57.766Z,1013.09
2022-08-12T10:07:53.981Z,1012.81
2022-08-12T10:08:53.980Z,1013.04
2022-08-12T10:09:58.260Z,1013.01
2022-08-12T10:10:54.996Z,1013.01
2022-08-12T10:12:09.759Z,1013.06
2022-08-12T10:13:07.719Z,1013.05
2022-08-12T10:13:54.924Z,1013.03
2022-08-12T10:14:54.453Z,1013.05
2022-08-12T10:16:02.646Z,1013.01
2022-08-12T10:16:54.897Z,1012.96
2022-08-12T10:17:56.926Z,1012.96
2022-08-12T10:18:54.879Z,1013.00
2022-08-12T10:19:53.865Z,1012.94
2022-08-12T10:20:53.855Z,1012.94
2022-08-12T10:21:56.598Z,1012.96
2022-08-12T10:22:54.023Z,1013.01
2022-08-12T10:23:55.133Z,1012.90
2022-08-12T10:24:53.809Z,1012.97
2022-08-12T10:26:37.490Z,1013.01
2022-08-12T10:26:54.799Z,1013.01
2022-08-12T10:28:04.924Z,1013.00
2022-08-12T10:29:02.356Z,1013.02
2022-08-12T10:30:03.473Z,1012.96
2022-08-12T10:30:54.756Z,1012.94
2022-08-12T10:32:21.478Z,1012.95
2022-08-12T10:32:56.390Z,1012.88
2022-08-12T10:34:05.357Z,1012.90
2022-08-12T10:34:57.083Z,1012.97
2022-08-12T10:35:53.705Z,1012.90
2022-08-12T10:36:53.692Z,1012.89
2022-08-12T10:38:34.640Z,1012.88
2022-08-12T10:38:56.544Z,1012.89
2022-08-12T10:40:01.115Z,1012.87
2022-08-12T10:40:54.757Z,1012.77
2022-08-12T10:41:58.545Z,1012.80
2022-08-12T10:42:54.646Z,1012.86
2022-08-12T10:43:54.901Z,1012.83
2022-08-12T10:44:53.615Z,1012.82
2022-08-12T10:45:53.617Z,1012.89
2022-08-12T10:46:53.588Z,1012.89
2022-08-12T10:48:19.036Z,1012.90
2022-08-12T10:48:57.993Z,1012.88
2022-08-12T10:50:04.999Z,1012.83
2022-08-12T10:51:00.854Z,1012.82
2022-08-12T10:52:32.398Z,1012.80
2022-08-12T10:52:54.528Z,1012.84
2022-08-12T10:53:53.532Z,1012.79
2022-08-12T10:54:54.509Z,1012.83
2022-08-12T10:55:56.362Z,1012.78
2022-08-12T10:56:53.498Z,1012.79
2022-08-12T10:58:15.701Z,1012.76
2022-08-12T10:58:54.483Z,1012.75
2022-08-12T11:00:30.583Z,1012.70
2022-08-12T11:00:55.217Z,1012.73
2022-08-12T11:04:20.674Z,1012.69
2022-08-12T11:04:25.215Z,1012.63
2022-08-12T11:04:25.349Z,1012.65
2022-08-12T11:04:55.076Z,1012.64
2022-08-12T11:07:05.072Z,1012.60
2022-08-12T11:07:08.462Z,1012.52
2022-08-12T11:08:37.928Z,1012.50
2022-08-12T11:08:54.461Z,1012.49
2022-08-12T11:09:59.560Z,1012.41
2022-08-12T11:10:54.355Z,1012.40
2022-08-12T11:12:37.095Z,1012.42
2022-08-12T11:12:58.820Z,1012.35
2022-08-12T11:13:54.324Z,1012.31
2022-08-12T11:14:54.333Z,1012.31
2022-08-12T11:16:19.477Z,1012.28
2022-08-12T11:17:34.317Z,1012.25
2022-08-12T11:17:55.762Z,1012.18
2022-08-12T11:18:55.487Z,1012.18
2022-08-12T11:19:53.264Z,1012.18
2022-08-12T11:20:53.276Z,1012.19
2022-08-12T11:21:58.237Z,1012.13
2022-08-12T11:22:57.936Z,1012.18
2022-08-12T11:23:54.217Z,1012.11
2022-08-12T11:24:53.800Z,1012.06
2022-08-12T11:25:57.777Z,1011.99
2022-08-12T11:26:54.281Z,1011.97
2022-08-12T11:27:53.207Z,1011.95
2022-08-12T11:28:59.214Z,1011.93
2022-08-12T11:30:01.923Z,1011.88
2022-08-12T11:30:54.168Z,1011.97
2022-08-12T11:32:01.907Z,1011.86
2022-08-12T11:32:54.563Z,1011.91
2022-08-12T11:34:06.373Z,1011.92
2022-08-12T11:34:55.165Z,1011.94
2022-08-12T11:35:57.649Z,1011.95
2022-08-12T11:36:54.055Z,1011.93
2022-08-12T11:37:59.273Z,1011.86
2022-08-12T11:38:54.036Z,1011.92
2022-08-12T11:40:54.033Z,1011.86
2022-08-12T11:41:53.270Z,1011.85
2022-08-12T11:42:53.154Z,1011.93
2022-08-12T11:43:58.540Z,1011.89
2022-08-12T11:44:53.976Z,1011.86
2022-08-12T11:45:56.576Z,1011.86
2022-08-12T11:46:53.495Z,1011.88
2022-08-12T11:47:55.573Z,1011.88
2022-08-12T11:48:53.005Z,1011.91
2022-08-12T11:49:52.923Z,1011.86
2022-08-12T11:50:52.932Z,1011.86
2022-08-12T11:51:57.632Z,1011.89
2022-08-12T11:52:56.300Z,1011.82
2022-08-12T11:53:57.136Z,1011.87
2022-08-12T11:54:54.396Z,1011.84
2022-08-12T11:55:52.869Z,1011.93
2022-08-12T11:56:59.669Z,1011.92
2022-08-12T11:58:44.108Z,1011.89
2022-08-12T12:01:58.895Z,1011.84
2022-08-12T12:02:01.551Z,1011.79
2022-08-12T12:02:53.869Z,1011.77
2022-08-12T12:03:54.784Z,1011.76
2022-08-12T12:04:53.810Z,1011.80
2022-08-12T12:05:52.789Z,1011.83
2022-08-12T12:06:53.173Z,1011.77
2022-08-12T12:08:41.024Z,1011.83
2022-08-12T12:08:54.160Z,1011.79
2022-08-12T12:09:53.844Z,1011.76